createdAt,value
2019-04-06T00:03:11.191Z,15.32
2019-04-06T00:08:14.600Z,14.10
2019-04-06T00:13:18.712Z,15.45
2019-04-06T00:18:22.364Z,16.02
2019-04-06T00:23:25.714Z,15.32
2019-04-06T00:28:30.627Z,15.35
2019-04-06T00:33:34.180Z,16.12
2019-04-06T00:38:37.674Z,14.50
2019-04-06T00:43:41.314Z,15.80
2019-04-06T00:48:44.709Z,15.25
2019-04-06T00:53:48.450Z,15.88
2019-04-06T00:58:52.639Z,15.63
2019-04-06T01:03:56.028Z,15.48
2019-04-06T01:08:59.514Z,15.78
2019-04-06T01:14:02.949Z,14.90
2019-04-06T01:19:06.413Z,15.45
2019-04-06T01:24:09.802Z,15.25
2019-04-06T01:29:13.254Z,15.72
2019-04-06T01:34:17.178Z,15.63
2019-04-06T01:39:20.596Z,14.83
2019-04-06T01:44:25.070Z,15.45
2019-04-06T01:49:28.696Z,14.87
2019-04-06T01:54:32.120Z,16.00
2019-04-06T01:59:35.564Z,15.50
2019-04-06T02:04:39.082Z,15.30
2019-04-06T02:09:42.514Z,15.48
2019-04-06T02:14:45.975Z,15.98
2019-04-06T02:19:53.178Z,15.70
2019-04-06T02:24:56.667Z,15.13
2019-04-06T02:30:10.826Z,15.20
2019-04-06T02:35:22.868Z,16.07
2019-04-06T02:40:30.764Z,14.55
2019-04-06T02:45:35.068Z,14.93
2019-04-06T02:50:38.467Z,15.85
2019-04-06T02:55:41.990Z,15.58
2019-04-06T03:00:46.787Z,15.32
2019-04-06T03:05:51.204Z,15.80
2019-04-06T03:10:54.569Z,16.02
2019-04-06T03:15:57.962Z,14.93
2019-04-06T03:21:01.401Z,14.50
2019-04-06T03:26:06.800Z,16.00
2019-04-06T03:31:12.047Z,15.40
2019-04-06T03:36:15.437Z,15.40
2019-04-06T03:41:18.817Z,15.75
2019-04-06T03:46:23.852Z,14.45
2019-04-06T03:51:27.238Z,15.13
2019-04-06T03:56:31.425Z,16.07
2019-04-06T04:01:34.966Z,15.18
2019-04-06T04:06:39.381Z,14.20
2019-04-06T04:11:43.106Z,15.83
2019-04-06T04:16:47.442Z,15.63
2019-04-06T04:21:53.019Z,15.80
2019-04-06T04:26:59.139Z,14.38
2019-04-06T04:32:02.589Z,15.00
2019-04-06T04:37:15.346Z,15.08
2019-04-06T04:42:18.896Z,15.10
2019-04-06T04:47:23.045Z,15.45
2019-04-06T04:52:26.492Z,15.48
2019-04-06T04:57:40.335Z,15.28
2019-04-06T05:02:40.965Z,14.78
2019-04-06T05:07:48.755Z,16.07
2019-04-06T05:12:54.106Z,15.35
2019-04-06T05:18:01.359Z,16.27
2019-04-06T05:23:04.991Z,15.28
2019-04-06T05:28:13.540Z,14.15
2019-04-06T05:33:17.290Z,15.05
2019-04-06T05:38:21.527Z,15.90
2019-04-06T05:43:29.764Z,15.93
2019-04-06T05:48:34.154Z,16.35
2019-04-06T05:53:38.677Z,15.72
2019-04-06T05:58:44.400Z,15.08
2019-04-06T06:03:56.547Z,14.87
2019-04-06T06:09:00.136Z,14.85
2019-04-06T06:14:04.870Z,14.53
2019-04-06T06:19:14.048Z,14.47
2019-04-06T06:24:17.858Z,15.63
2019-04-06T06:29:21.335Z,15.25
2019-04-06T06:34:33.891Z,14.45
2019-04-06T06:39:46.231Z,14.83
2019-04-06T06:44:50.115Z,14.25
2019-04-06T06:49:55.916Z,14.78
2019-04-06T06:55:00.993Z,14.98
2019-04-06T07:00:09.291Z,14.85
2019-04-06T07:05:12.786Z,14.78
2019-04-06T07:10:16.163Z,15.18
2019-04-06T07:15:19.746Z,14.60
2019-04-06T07:31:16.116Z,13.60
2019-04-06T07:36:19.477Z,14.28
2019-04-06T08:08:47.046Z,13.05
2019-04-06T08:13:53.437Z,11.97
2019-04-06T08:19:03.316Z,13.08
2019-04-06T08:29:39.234Z,11.85
2019-04-06T08:34:42.770Z,10.93
2019-04-06T08:39:52.645Z,10.85
2019-04-06T08:45:02.350Z,10.85
2019-04-06T08:50:11.478Z,12.03
2019-04-06T08:55:40.146Z,10.23
2019-04-06T09:00:45.618Z,11.07
2019-04-06T09:05:49.236Z,11.78
2019-04-06T09:10:56.382Z,10.72
2019-04-06T09:15:59.869Z,10.88
2019-04-06T09:21:05.579Z,10.58
2019-04-06T09:26:09.294Z,10.38
2019-04-06T09:31:14.690Z,10.40
2019-04-06T09:36:18.120Z,9.88
2019-04-06T09:41:21.738Z,9.90
2019-04-06T09:46:33.627Z,9.48
2019-04-06T09:51:44.103Z,9.45
2019-04-06T09:56:52.510Z,9.73
2019-04-06T10:02:15.146Z,9.03
2019-04-06T10:07:45.002Z,8.80
2019-04-06T10:13:15.315Z,8.88
2019-04-06T10:18:17.402Z,8.90
2019-04-06T10:23:39.607Z,8.30
2019-04-06T10:28:44.715Z,8.48
2019-04-06T10:33:49.787Z,8.03
2019-04-06T10:39:01.603Z,7.22
2019-04-06T10:44:21.537Z,7.55
2019-04-06T10:49:29.225Z,7.30
2019-04-06T10:54:39.896Z,7.20
2019-04-06T11:00:03.195Z,8.15
2019-04-06T11:05:14.393Z,8.25
2019-04-06T11:10:19.421Z,8.13
2019-04-06T11:15:36.686Z,7.65
2019-04-06T11:20:41.661Z,8.23
2019-04-06T11:26:03.104Z,8.25
2019-04-06T11:31:08.055Z,8.20
2019-04-06T11:36:25.126Z,7.87
2019-04-06T11:41:46.662Z,8.28
2019-04-06T11:47:08.305Z,7.95
2019-04-06T11:52:28.352Z,8.53
2019-04-06T12:05:20.743Z,9.08
2019-04-06T12:10:29.763Z,8.33
2019-04-06T12:15:44.058Z,8.63
2019-04-06T12:20:55.044Z,9.40
2019-04-06T12:26:00.005Z,8.08
2019-04-06T12:36:36.601Z,7.67
2019-04-06T12:41:47.847Z,8.03
2019-04-06T12:47:01.952Z,7.65
2019-04-06T12:52:15.985Z,8.03
2019-04-06T12:57:27.009Z,7.47
2019-04-06T13:02:34.843Z,8.00
2019-04-06T13:07:56.217Z,7.95
2019-04-06T13:13:18.192Z,8.10
2019-04-06T13:18:41.797Z,8.05
2019-04-06T13:23:49.864Z,8.48
2019-04-06T13:29:07.008Z,8.58
2019-04-06T13:34:14.899Z,9.68
2019-04-06T13:39:26.211Z,9.20
2019-04-06T13:44:33.911Z,9.08
2019-04-06T13:49:38.906Z,9.73
2019-04-06T13:54:44.485Z,9.95
2019-04-06T13:59:49.962Z,10.15
2019-04-06T14:05:00.655Z,9.50
2019-04-06T14:10:11.603Z,10.13
2019-04-06T14:21:15.079Z,10.80
2019-04-06T14:26:20.166Z,9.38
2019-04-06T14:31:37.317Z,10.10
2019-04-06T14:36:49.572Z,9.90
2019-04-06T14:42:04.019Z,9.55
2019-04-06T14:47:12.708Z,10.58
2019-04-06T14:52:24.092Z,9.90
2019-04-06T14:57:34.859Z,10.82
2019-04-06T15:02:40.222Z,10.38
2019-04-06T15:07:49.496Z,9.88
2019-04-06T15:13:00.398Z,10.93
2019-04-06T15:18:15.974Z,10.23
2019-04-06T15:23:25.382Z,10.85
2019-04-06T15:28:39.771Z,10.88
2019-04-06T15:33:59.669Z,10.00
2019-04-06T15:39:20.780Z,9.70
2019-04-06T15:44:28.756Z,10.35
2019-04-06T15:49:36.311Z,9.13
2019-04-06T15:54:59.292Z,9.20
2019-04-06T16:00:19.563Z,8.98
2019-04-06T16:05:25.719Z,9.70
2019-04-06T16:10:48.660Z,10.20
2019-04-06T16:15:57.173Z,10.08
2019-04-06T16:21:18.583Z,10.13
2019-04-06T16:26:23.608Z,9.48
2019-04-06T16:31:35.355Z,9.95
2019-04-06T16:36:43.153Z,9.90
2019-04-06T16:42:06.642Z,10.58
2019-04-06T16:47:17.530Z,11.03
2019-04-06T16:52:31.812Z,10.93
2019-04-06T16:57:45.813Z,11.75
2019-04-06T17:03:07.739Z,11.48
2019-04-06T17:08:15.458Z,12.15
2019-04-06T17:13:26.997Z,11.30
2019-04-06T17:23:56.073Z,12.73
2019-04-06T17:29:07.039Z,12.20
2019-04-06T17:34:15.390Z,12.10
2019-04-06T17:39:23.156Z,13.10
2019-04-06T17:44:45.338Z,19.70
2019-04-06T17:50:08.851Z,14.60
2019-04-06T17:55:30.439Z,13.00
2019-04-06T18:00:52.020Z,13.38
2019-04-06T18:06:06.684Z,13.48
2019-04-06T18:11:17.570Z,14.60
2019-04-06T18:16:23.152Z,14.15
2019-04-06T18:21:26.609Z,13.98
2019-04-06T18:26:30.092Z,15.48
2019-04-06T18:31:47.191Z,16.48
2019-04-06T18:37:01.370Z,16.80
2019-04-06T18:42:26.101Z,16.75
2019-04-06T18:47:30.128Z,16.77
2019-04-06T18:52:34.479Z,21.35
2019-04-06T18:58:08.842Z,16.67
2019-04-06T19:03:12.510Z,16.52
2019-04-06T19:13:50.214Z,18.87
2019-04-06T19:18:55.654Z,18.05
2019-04-06T19:35:10.456Z,21.37
2019-04-06T19:40:15.636Z,22.50
2019-04-06T19:45:19.633Z,20.57
2019-04-06T19:50:23.163Z,20.32
2019-04-06T19:55:27.069Z,20.97
2019-04-06T20:00:30.464Z,21.87
2019-04-06T20:05:33.908Z,21.35
2019-04-06T20:17:20.106Z,22.67
2019-04-06T20:44:17.292Z,28.07
2019-04-06T20:49:20.785Z,26.90
2019-04-06T20:54:24.617Z,27.02
2019-04-06T20:59:28.344Z,26.87
2019-04-06T21:04:31.860Z,29.18
2019-04-06T21:09:36.047Z,29.35
2019-04-06T21:14:40.483Z,29.98
2019-04-06T21:19:44.278Z,30.17
2019-04-06T21:24:51.478Z,29.77
2019-04-06T21:29:54.994Z,29.07
2019-04-06T21:35:00.358Z,31.65
2019-04-06T21:40:17.004Z,30.50
2019-04-06T21:45:20.712Z,28.75
2019-04-06T21:50:25.550Z,29.65
2019-04-06T21:55:30.012Z,28.70
2019-04-06T22:00:38.603Z,29.35
2019-04-06T22:05:42.127Z,28.47
2019-04-06T22:10:45.871Z,27.58
2019-04-06T22:15:49.285Z,29.20
2019-04-06T22:20:52.985Z,27.50
2019-04-06T22:25:56.862Z,26.70
2019-04-06T22:31:02.060Z,27.17
2019-04-06T22:36:05.410Z,27.93
2019-04-06T22:41:09.257Z,27.05
2019-04-06T22:46:12.679Z,27.52
2019-04-06T22:51:22.174Z,31.25
2019-04-06T22:56:27.159Z,27.25
2019-04-06T23:01:32.259Z,27.90
2019-04-06T23:06:43.120Z,28.07
2019-04-06T23:11:46.443Z,26.90
2019-04-06T23:16:50.239Z,26.97
2019-04-06T23:21:54.259Z,25.92
2019-04-06T23:26:57.829Z,26.07
2019-04-06T23:32:04.199Z,25.75
2019-04-06T23:37:08.401Z,25.70
2019-04-06T23:42:11.803Z,23.98
2019-04-06T23:47:15.140Z,27.27
2019-04-06T23:52:18.494Z,23.62
2019-04-06T23:57:22.183Z,24.15
